createdAt,value
2018-10-01T00:01:46.730Z,99132.00
2018-10-01T00:04:16.967Z,99131.00
2018-10-01T00:06:47.220Z,99125.00
2018-10-01T00:09:22.759Z,99130.00
2018-10-01T00:11:53.010Z,99128.00
2018-10-01T00:14:23.238Z,99133.00
2018-10-01T00:16:53.485Z,99133.00
2018-10-01T00:19:28.931Z,99131.00
2018-10-01T00:22:04.387Z,99134.00
2018-10-01T00:24:34.611Z,99140.00
2018-10-01T00:27:04.858Z,99131.00
2018-10-01T00:29:35.118Z,99134.00
2018-10-01T00:32:05.466Z,99137.00
2018-10-01T00:34:35.722Z,99141.00
2018-10-01T00:37:06.177Z,99143.00
2018-10-01T00:39:36.400Z,99149.00
2018-10-01T00:42:06.653Z,99148.00
2018-10-01T00:44:36.878Z,99139.00
2018-10-01T00:47:07.134Z,99135.00
2018-10-01T00:49:37.389Z,99133.00
2018-10-01T00:52:07.968Z,99137.00
2018-10-01T00:54:38.236Z,99135.00
2018-10-01T00:57:08.507Z,99133.00
2018-10-01T00:59:38.711Z,99135.00
2018-10-01T01:02:08.969Z,99130.00
2018-10-01T01:04:39.216Z,99133.00
2018-10-01T01:07:09.714Z,99138.00
2018-10-01T01:09:40.045Z,99137.00
2018-10-01T01:12:10.353Z,99147.00
2018-10-01T01:14:40.646Z,99145.00
2018-10-01T01:17:10.989Z,99148.00
2018-10-01T01:19:41.234Z,99151.00
2018-10-01T01:22:11.485Z,99151.00
2018-10-01T01:24:41.729Z,99147.00
2018-10-01T01:27:11.989Z,99147.00
2018-10-01T01:29:42.225Z,99142.00
2018-10-01T01:32:12.478Z,99138.00
2018-10-01T01:34:42.702Z,99132.00
2018-10-01T01:37:12.975Z,99130.00
2018-10-01T01:39:43.201Z,99130.00
2018-10-01T01:42:13.450Z,99125.00
2018-10-01T01:44:43.694Z,99124.00
2018-10-01T01:47:13.945Z,99130.00
2018-10-01T01:49:44.175Z,99126.00
2018-10-01T01:52:14.480Z,99125.00
2018-10-01T01:54:44.704Z,99123.00
2018-10-01T01:57:14.962Z,99124.00
2018-10-01T01:59:45.181Z,99119.00
2018-10-01T02:02:15.442Z,99125.00
2018-10-01T02:04:45.734Z,99127.00
2018-10-01T02:07:16.013Z,99130.00
2018-10-01T02:09:46.247Z,99126.00
2018-10-01T02:12:16.565Z,99127.00
2018-10-01T02:14:46.815Z,99127.00
2018-10-01T02:17:17.064Z,99124.00
2018-10-01T02:19:47.305Z,99119.00
2018-10-01T02:22:17.552Z,99115.00
2018-10-01T02:24:47.801Z,99117.00
2018-10-01T02:27:18.042Z,99120.00
2018-10-01T02:29:48.290Z,99117.00
2018-10-01T02:32:18.487Z,99113.00
2018-10-01T02:34:48.736Z,99112.00
2018-10-01T02:37:19.001Z,99112.00
2018-10-01T02:39:49.238Z,99113.00
2018-10-01T02:42:19.722Z,99105.00
2018-10-01T02:44:50.166Z,99106.00
2018-10-01T02:47:20.559Z,99106.00
2018-10-01T02:49:50.909Z,99104.00
2018-10-01T02:52:26.422Z,99105.00
2018-10-01T02:54:56.692Z,99110.00
2018-10-01T02:57:27.077Z,99109.00
2018-10-01T02:59:57.430Z,99106.00
2018-10-01T03:02:27.699Z,99105.00
2018-10-01T03:04:57.967Z,99101.00
2018-10-01T03:07:28.491Z,99104.00
2018-10-01T03:09:58.881Z,99107.00
2018-10-01T03:12:29.106Z,99105.00
2018-10-01T03:14:59.414Z,99108.00
2018-10-01T03:17:29.646Z,99105.00
2018-10-01T03:19:59.956Z,99108.00
2018-10-01T03:22:30.174Z,99111.00
2018-10-01T03:25:00.441Z,99111.00
2018-10-01T03:27:30.762Z,99111.00
2018-10-01T03:30:00.989Z,99115.00
2018-10-01T03:32:31.398Z,99127.00
2018-10-01T03:35:01.655Z,99119.00
2018-10-01T03:37:31.878Z,99118.00
2018-10-01T03:40:02.171Z,99126.00
2018-10-01T03:42:32.383Z,99127.00
2018-10-01T03:45:02.621Z,99128.00
2018-10-01T03:47:32.849Z,99128.00
2018-10-01T03:50:03.164Z,99132.00
2018-10-01T03:52:33.355Z,99141.00
2018-10-01T03:55:03.854Z,99142.00
2018-10-01T03:57:34.169Z,99144.00
2018-10-01T04:00:04.486Z,99148.00
2018-10-01T04:02:34.687Z,99152.00
2018-10-01T04:05:05.161Z,99151.00
2018-10-01T04:07:35.386Z,99151.00
2018-10-01T04:10:05.682Z,99149.00
2018-10-01T04:12:35.919Z,99148.00
2018-10-01T04:15:06.193Z,99148.00
2018-10-01T04:17:36.426Z,99155.00
2018-10-01T04:20:06.745Z,99157.00
2018-10-01T04:22:39.144Z,99161.00
2018-10-01T04:25:10.921Z,99165.00
2018-10-01T04:27:41.166Z,99170.00
2018-10-01T04:30:12.491Z,99180.00
2018-10-01T04:32:42.724Z,99186.00
2018-10-01T04:35:13.014Z,99181.00
2018-10-01T04:37:43.247Z,99183.00
2018-10-01T04:40:13.510Z,99179.00
2018-10-01T04:42:43.766Z,99181.00
2018-10-01T04:45:14.024Z,99184.00
2018-10-01T04:47:44.254Z,99189.00
2018-10-01T04:50:14.522Z,99195.00
2018-10-01T04:52:44.737Z,99191.00
2018-10-01T04:55:14.997Z,99192.00
2018-10-01T04:57:45.229Z,99187.00
2018-10-01T05:00:15.486Z,99195.00
2018-10-01T05:02:45.866Z,99203.00
2018-10-01T05:05:16.183Z,99204.00
2018-10-01T05:07:46.409Z,99210.00
2018-10-01T05:10:16.671Z,99210.00
2018-10-01T05:12:46.914Z,99217.00
2018-10-01T05:15:17.173Z,99220.00
2018-10-01T05:17:47.404Z,99218.00
2018-10-01T05:20:17.688Z,99218.00
2018-10-01T05:22:47.911Z,99220.00
2018-10-01T05:25:18.349Z,99221.00
2018-10-01T05:27:48.617Z,99218.00
2018-10-01T05:30:18.874Z,99222.00
2018-10-01T05:32:49.114Z,99229.00
2018-10-01T05:35:19.370Z,99226.00
2018-10-01T05:37:49.623Z,99227.00
2018-10-01T05:40:19.865Z,99230.00
2018-10-01T05:42:50.099Z,99231.00
2018-10-01T05:45:20.334Z,99232.00
2018-10-01T05:47:50.567Z,99237.00
2018-10-01T05:50:20.786Z,99237.00
2018-10-01T05:52:51.247Z,99238.00
2018-10-01T05:55:21.503Z,99245.00
2018-10-01T05:57:51.770Z,99248.00
2018-10-01T06:00:21.978Z,99256.00
2018-10-01T06:02:52.255Z,99260.00
2018-10-01T06:05:22.504Z,99260.00
2018-10-01T06:07:52.729Z,99264.00
2018-10-01T06:10:29.682Z,99268.00
2018-10-01T06:12:59.910Z,99274.00
2018-10-01T06:15:30.350Z,99283.00
2018-10-01T06:18:00.843Z,99289.00
2018-10-01T06:20:31.126Z,99291.00
2018-10-01T06:23:01.345Z,99290.00
2018-10-01T06:25:31.644Z,99290.00
2018-10-01T06:28:01.843Z,99291.00
2018-10-01T06:30:32.100Z,99290.00
2018-10-01T06:33:02.380Z,99293.00
2018-10-01T06:35:32.674Z,99294.00
2018-10-01T06:38:03.195Z,99295.00
2018-10-01T06:40:33.383Z,99305.00
2018-10-01T06:43:03.664Z,99308.00
2018-10-01T06:45:33.911Z,99307.00
2018-10-01T06:48:04.147Z,99310.00
2018-10-01T06:50:34.413Z,99315.00
2018-10-01T06:53:04.663Z,99321.00
2018-10-01T06:55:34.917Z,99325.00
2018-10-01T06:58:05.140Z,99327.00
2018-10-01T07:00:35.450Z,99328.00
2018-10-01T07:03:05.679Z,99333.00
2018-10-01T07:05:36.017Z,99336.00
2018-10-01T07:08:06.228Z,99339.00
2018-10-01T07:10:36.450Z,99343.00
2018-10-01T07:13:07.347Z,99341.00
2018-10-01T07:15:37.653Z,99350.00
2018-10-01T07:18:07.943Z,99358.00
2018-10-01T07:20:38.240Z,99359.00
2018-10-01T07:23:08.562Z,99364.00
2018-10-01T07:25:38.787Z,99373.00
2018-10-01T07:28:09.023Z,99377.00
2018-10-01T07:30:39.293Z,99381.00
2018-10-01T07:33:09.516Z,99382.00
2018-10-01T07:35:40.285Z,99383.00
2018-10-01T07:38:10.528Z,99384.00
2018-10-01T07:40:40.790Z,99382.00
2018-10-01T07:43:11.108Z,99381.00
2018-10-01T07:45:41.367Z,99380.00
2018-10-01T07:48:11.631Z,99385.00
2018-10-01T07:50:41.917Z,99392.00
2018-10-01T07:53:12.124Z,99392.00
2018-10-01T07:55:42.371Z,99391.00
2018-10-01T07:58:12.640Z,99396.00
2018-10-01T08:00:42.917Z,99398.00
2018-10-01T08:03:13.217Z,99399.00
2018-10-01T08:05:43.552Z,99406.00
2018-10-01T08:08:13.892Z,99406.00
2018-10-01T08:10:44.088Z,99410.00
2018-10-01T08:13:14.342Z,99414.00
2018-10-01T08:15:44.662Z,99412.00
2018-10-01T08:18:15.530Z,99415.00
2018-10-01T08:20:46.046Z,99421.00
2018-10-01T08:23:16.360Z,99417.00
2018-10-01T08:25:46.699Z,99429.00
2018-10-01T08:28:17.018Z,99433.00
2018-10-01T08:30:47.330Z,99433.00
2018-10-01T08:33:17.650Z,99434.00
2018-10-01T08:35:47.961Z,99439.00
2018-10-01T08:38:18.309Z,99439.00
2018-10-01T08:40:48.582Z,99444.00
2018-10-01T08:43:18.902Z,99443.00
2018-10-01T08:45:49.211Z,99446.00
2018-10-01T08:48:20.293Z,99446.00
2018-10-01T08:50:55.109Z,99448.00
2018-10-01T08:53:38.499Z,99456.00
2018-10-01T08:56:08.852Z,99459.00
2018-10-01T08:58:39.135Z,99466.00
2018-10-01T09:01:09.575Z,99469.00
2018-10-01T09:03:39.845Z,99470.00
2018-10-01T09:06:10.143Z,99473.00
2018-10-01T09:08:40.451Z,99478.00
2018-10-01T09:11:10.803Z,99480.00
2018-10-01T09:13:41.170Z,99483.00
2018-10-01T09:16:11.482Z,99480.00
2018-10-01T09:18:41.883Z,99484.00
2018-10-01T09:21:12.366Z,99486.00
2018-10-01T09:23:42.669Z,99483.00
2018-10-01T09:26:13.074Z,99480.00
2018-10-01T09:28:43.331Z,99486.00
2018-10-01T09:31:13.754Z,99487.00
2018-10-01T09:33:44.226Z,99489.00
2018-10-01T09:36:14.663Z,99492.00
2018-10-01T09:38:44.978Z,99494.00
2018-10-01T09:41:15.271Z,99494.00
2018-10-01T09:43:45.629Z,99498.00
2018-10-01T09:46:15.970Z,99495.00
2018-10-01T09:48:46.331Z,99492.00
2018-10-01T09:51:16.636Z,99494.00
2018-10-01T09:53:47.055Z,99494.00
2018-10-01T09:56:17.482Z,99491.00
2018-10-01T09:58:47.763Z,99497.00
2018-10-01T10:01:18.098Z,99498.00
2018-10-01T10:03:48.386Z,99502.00
2018-10-01T10:06:18.690Z,99505.00
2018-10-01T10:08:48.969Z,99509.00
2018-10-01T10:11:19.296Z,99504.00
2018-10-01T10:13:49.565Z,99503.00
2018-10-01T10:16:19.996Z,99509.00
2018-10-01T10:18:50.234Z,99513.00
2018-10-01T10:21:20.591Z,99511.00
2018-10-01T10:23:50.902Z,99506.00
2018-10-01T10:26:21.201Z,99505.00
2018-10-01T10:28:51.510Z,99499.00
2018-10-01T10:31:21.805Z,99503.00
2018-10-01T10:33:52.174Z,99504.00
2018-10-01T10:36:22.463Z,99511.00
2018-10-01T10:38:52.765Z,99513.00
2018-10-01T10:41:23.106Z,99517.00
2018-10-01T10:43:53.414Z,99514.00
2018-10-01T10:46:23.681Z,99516.00
2018-10-01T10:48:54.109Z,99527.00
2018-10-01T10:51:24.406Z,99532.00
2018-10-01T10:53:54.719Z,99531.00
2018-10-01T10:56:25.118Z,99525.00
2018-10-01T10:58:55.422Z,99527.00
2018-10-01T11:01:25.709Z,99527.00
2018-10-01T11:03:55.997Z,99524.00
2018-10-01T11:06:26.274Z,99527.00
2018-10-01T11:08:56.584Z,99528.00
2018-10-01T11:11:26.875Z,99526.00
2018-10-01T11:13:57.254Z,99526.00
2018-10-01T11:16:27.494Z,99526.00
2018-10-01T11:18:57.987Z,99522.00
2018-10-01T11:21:28.165Z,99527.00
2018-10-01T11:23:58.493Z,99526.00
2018-10-01T11:26:28.794Z,99523.00
2018-10-01T11:28:59.125Z,99523.00
2018-10-01T11:31:29.434Z,99525.00
2018-10-01T11:33:59.725Z,99525.00
2018-10-01T11:36:30.020Z,99527.00
2018-10-01T11:39:00.338Z,99528.00
2018-10-01T11:41:30.601Z,99527.00
2018-10-01T11:44:00.910Z,99528.00
2018-10-01T11:46:31.203Z,99532.00
2018-10-01T11:49:01.525Z,99536.00
2018-10-01T11:51:31.861Z,99531.00
2018-10-01T11:54:02.146Z,99541.00
2018-10-01T11:56:32.417Z,99546.00
2018-10-01T11:59:02.730Z,99540.00
2018-10-01T12:01:33.072Z,99538.00
2018-10-01T12:04:03.437Z,99535.00
2018-10-01T12:06:33.687Z,99540.00
2018-10-01T12:09:04.641Z,99537.00
2018-10-01T12:11:34.849Z,99536.00
2018-10-01T12:14:05.217Z,99535.00
2018-10-01T12:16:35.514Z,99531.00
2018-10-01T12:19:05.785Z,99531.00
2018-10-01T12:21:36.094Z,99527.00
2018-10-01T12:24:06.277Z,99529.00
2018-10-01T12:26:36.501Z,99525.00
2018-10-01T12:29:06.942Z,99524.00
2018-10-01T12:31:37.154Z,99520.00
2018-10-01T12:34:07.480Z,99519.00
2018-10-01T12:36:37.759Z,99519.00
2018-10-01T12:39:09.756Z,99525.00
2018-10-01T12:41:39.925Z,99514.00
2018-10-01T12:44:10.206Z,99517.00
2018-10-01T12:46:40.454Z,99508.00
2018-10-01T12:49:10.707Z,99502.00
2018-10-01T12:51:41.019Z,99499.00
2018-10-01T12:54:11.178Z,99496.00
2018-10-01T12:56:41.410Z,99494.00
2018-10-01T12:59:11.666Z,99492.00
2018-10-01T13:01:41.902Z,99496.00
2018-10-01T13:04:12.153Z,99494.00
2018-10-01T13:06:42.449Z,99498.00
2018-10-01T13:09:13.300Z,99496.00
2018-10-01T13:11:43.550Z,99494.00
2018-10-01T13:14:13.814Z,99496.00
2018-10-01T13:16:44.046Z,99498.00
2018-10-01T13:19:14.306Z,99493.00
2018-10-01T13:21:44.551Z,99493.00
2018-10-01T13:24:14.883Z,99493.00
2018-10-01T13:26:45.016Z,99495.00
2018-10-01T13:29:21.498Z,99490.00
2018-10-01T13:31:51.865Z,99493.00
2018-10-01T13:34:22.750Z,99491.00
2018-10-01T13:36:53.058Z,99486.00
2018-10-01T13:39:23.366Z,99490.00
2018-10-01T13:41:53.673Z,99494.00
2018-10-01T13:44:24.067Z,99492.00
2018-10-01T13:46:54.311Z,99491.00
2018-10-01T13:49:24.561Z,99494.00
2018-10-01T13:51:54.801Z,99489.00
2018-10-01T13:54:25.138Z,99487.00
2018-10-01T13:56:55.337Z,99485.00
2018-10-01T13:59:25.603Z,99485.00
2018-10-01T14:01:55.934Z,99485.00
2018-10-01T14:04:26.122Z,99492.00
2018-10-01T14:06:56.394Z,99503.00
2018-10-01T14:09:26.621Z,99500.00
2018-10-01T14:11:56.867Z,99499.00
2018-10-01T14:14:27.086Z,99498.00
2018-10-01T14:16:57.315Z,99500.00
2018-10-01T14:19:27.618Z,99496.00
2018-10-01T14:21:57.818Z,99497.00
2018-10-01T14:24:28.049Z,99500.00
2018-10-01T14:26:58.329Z,99506.00
2018-10-01T14:29:28.575Z,99502.00
2018-10-01T14:31:58.818Z,99503.00
2018-10-01T14:34:29.048Z,99499.00
2018-10-01T14:36:59.365Z,99502.00
2018-10-01T14:39:29.582Z,99498.00
2018-10-01T14:41:59.896Z,99502.00
2018-10-01T14:44:30.065Z,99503.00
2018-10-01T14:47:00.438Z,99502.00
2018-10-01T14:49:30.680Z,99506.00
2018-10-01T14:52:00.921Z,99508.00
2018-10-01T14:54:31.199Z,99507.00
2018-10-01T14:57:01.450Z,99514.00
2018-10-01T14:59:31.704Z,99520.00
2018-10-01T15:02:01.962Z,99518.00
2018-10-01T15:04:32.202Z,99526.00
2018-10-01T15:07:02.460Z,99524.00
2018-10-01T15:09:32.807Z,99534.00
2018-10-01T15:12:03.201Z,99539.00
2018-10-01T15:14:33.522Z,99548.00
2018-10-01T15:17:03.802Z,99558.00
2018-10-01T15:19:34.065Z,99563.00
2018-10-01T15:22:04.314Z,99580.00
2018-10-01T15:24:34.560Z,99596.00
2018-10-01T15:27:04.793Z,99593.00
2018-10-01T15:29:35.060Z,99592.00
2018-10-01T15:32:05.304Z,99588.00
2018-10-01T15:34:35.531Z,99589.00
2018-10-01T15:37:05.768Z,99595.00
2018-10-01T15:39:35.974Z,99597.00
2018-10-01T15:42:07.158Z,99600.00
2018-10-01T15:44:37.354Z,99605.00
2018-10-01T15:47:07.616Z,99616.00
2018-10-01T15:49:37.826Z,99623.00
2018-10-01T15:52:08.138Z,99629.00
2018-10-01T15:54:38.391Z,99638.00
2018-10-01T15:57:08.638Z,99642.00
2018-10-01T15:59:38.870Z,99654.00
2018-10-01T16:02:09.112Z,99660.00
2018-10-01T16:04:39.354Z,99656.00
2018-10-01T16:07:09.577Z,99660.00
2018-10-01T16:09:39.819Z,99663.00
2018-10-01T16:12:10.073Z,99664.00
2018-10-01T16:14:40.324Z,99669.00
2018-10-01T16:17:10.567Z,99672.00
2018-10-01T16:19:40.886Z,99673.00
2018-10-01T16:22:11.222Z,99680.00
2018-10-01T16:24:41.522Z,99686.00
2018-10-01T16:27:11.825Z,99686.00
2018-10-01T16:29:42.114Z,99687.00
2018-10-01T16:32:12.490Z,99699.00
2018-10-01T16:34:42.782Z,99705.00
2018-10-01T16:37:13.206Z,99708.00
2018-10-01T16:39:43.513Z,99708.00
2018-10-01T16:42:13.845Z,99712.00
2018-10-01T16:44:44.143Z,99711.00
2018-10-01T16:47:14.448Z,99715.00
2018-10-01T16:49:44.776Z,99717.00
2018-10-01T16:52:15.116Z,99713.00
2018-10-01T16:54:45.383Z,99719.00
2018-10-01T16:57:15.793Z,99723.00
2018-10-01T16:59:46.123Z,99726.00
2018-10-01T17:02:16.416Z,99735.00
2018-10-01T17:04:46.715Z,99743.00
2018-10-01T17:07:17.013Z,99749.00
2018-10-01T17:09:47.322Z,99746.00
2018-10-01T17:12:17.614Z,99755.00
2018-10-01T17:14:47.922Z,99758.00
2018-10-01T17:17:18.225Z,99764.00
2018-10-01T17:19:48.559Z,99766.00
2018-10-01T17:22:18.997Z,99771.00
2018-10-01T17:24:49.330Z,99774.00
2018-10-01T17:27:19.663Z,99778.00
2018-10-01T17:29:49.970Z,99787.00
2018-10-01T17:32:20.554Z,99789.00
2018-10-01T17:34:50.906Z,99792.00
2018-10-01T17:37:21.206Z,99800.00
2018-10-01T17:39:51.509Z,99798.00
2018-10-01T17:42:21.811Z,99804.00
2018-10-01T17:44:52.126Z,99803.00
2018-10-01T17:47:22.456Z,99812.00
2018-10-01T17:49:52.831Z,99811.00
2018-10-01T17:52:23.736Z,99819.00
2018-10-01T17:54:54.171Z,99821.00
2018-10-01T17:57:24.395Z,99826.00
2018-10-01T17:59:54.729Z,99825.00
2018-10-01T18:02:24.946Z,99826.00
2018-10-01T18:04:55.203Z,99833.00
2018-10-01T18:07:25.425Z,99840.00
2018-10-01T18:09:55.691Z,99843.00
2018-10-01T18:12:25.937Z,99845.00
2018-10-01T18:14:56.189Z,99850.00
2018-10-01T18:17:26.414Z,99857.00
2018-10-01T18:19:56.690Z,99857.00
2018-10-01T18:22:26.918Z,99855.00
2018-10-01T18:24:57.161Z,99860.00
2018-10-01T18:27:27.386Z,99858.00
2018-10-01T18:29:57.712Z,99866.00
2018-10-01T18:32:27.922Z,99865.00
2018-10-01T18:34:58.171Z,99866.00
2018-10-01T18:37:28.440Z,99867.00
2018-10-01T18:39:58.682Z,99873.00
2018-10-01T18:42:28.974Z,99873.00
2018-10-01T18:44:59.205Z,99874.00
2018-10-01T18:47:29.434Z,99875.00
2018-10-01T18:49:59.689Z,99874.00
2018-10-01T18:52:29.946Z,99876.00
2018-10-01T18:55:00.203Z,99884.00
2018-10-01T18:57:30.427Z,99882.00
2018-10-01T19:00:00.660Z,99879.00
2018-10-01T19:02:30.865Z,99888.00
2018-10-01T19:05:01.122Z,99885.00
2018-10-01T19:07:31.357Z,99884.00
2018-10-01T19:10:01.595Z,99892.00
2018-10-01T19:12:31.826Z,99883.00
2018-10-01T19:15:02.195Z,99877.00
2018-10-01T19:17:32.334Z,99876.00
2018-10-01T19:20:02.641Z,99881.00
2018-10-01T19:22:32.870Z,99881.00
2018-10-01T19:25:03.146Z,99885.00
2018-10-01T19:27:33.369Z,99887.00
2018-10-01T19:30:03.713Z,99892.00
2018-10-01T19:32:33.881Z,99893.00
2018-10-01T19:35:04.143Z,99898.00
2018-10-01T19:37:34.441Z,99904.00
2018-10-01T19:40:04.754Z,99908.00
2018-10-01T19:42:35.039Z,99906.00
2018-10-01T19:45:05.449Z,99912.00
2018-10-01T19:47:35.799Z,99908.00
2018-10-01T19:50:06.240Z,99916.00
2018-10-01T19:52:36.533Z,99921.00
2018-10-01T19:55:07.144Z,99918.00
2018-10-01T19:57:37.426Z,99927.00
2018-10-01T20:00:07.783Z,99932.00
2018-10-01T20:02:38.071Z,99923.00
2018-10-01T20:05:08.443Z,99932.00
2018-10-01T20:07:38.686Z,99928.00
2018-10-01T20:10:09.032Z,99932.00
2018-10-01T20:12:39.287Z,99936.00
2018-10-01T20:15:09.758Z,99942.00
2018-10-01T20:17:40.062Z,99940.00
2018-10-01T20:20:10.409Z,99943.00
2018-10-01T20:22:40.690Z,99939.00
2018-10-01T20:25:11.015Z,99935.00
2018-10-01T20:27:41.466Z,99940.00
2018-10-01T20:30:11.826Z,99941.00
2018-10-01T20:32:42.111Z,99935.00
2018-10-01T20:35:12.662Z,99939.00
2018-10-01T20:37:42.792Z,99944.00
2018-10-01T20:40:13.076Z,99943.00
2018-10-01T20:42:43.365Z,99941.00
2018-10-01T20:45:13.677Z,99950.00
2018-10-01T20:47:43.981Z,99952.00
2018-10-01T20:50:14.314Z,99951.00
2018-10-01T20:52:44.741Z,99953.00
2018-10-01T20:55:15.014Z,99958.00
2018-10-01T20:57:45.311Z,99960.00
2018-10-01T21:00:15.630Z,99960.00
2018-10-01T21:02:45.922Z,99963.00
2018-10-01T21:05:16.226Z,99961.00
2018-10-01T21:07:46.518Z,99964.00
2018-10-01T21:10:16.833Z,99968.00
2018-10-01T21:12:47.124Z,99972.00
2018-10-01T21:15:17.423Z,99967.00
2018-10-01T21:17:47.762Z,99974.00
2018-10-01T21:20:18.093Z,99982.00
2018-10-01T21:22:48.387Z,99982.00
2018-10-01T21:25:18.743Z,99981.00
2018-10-01T21:27:49.005Z,99985.00
2018-10-01T21:30:19.322Z,99981.00
2018-10-01T21:32:49.606Z,99985.00
2018-10-01T21:35:19.898Z,99983.00
2018-10-01T21:37:50.218Z,99987.00
2018-10-01T21:40:20.534Z,99991.00
2018-10-01T21:42:50.822Z,99989.00
2018-10-01T21:45:21.150Z,99990.00
2018-10-01T21:47:51.430Z,99995.00
2018-10-01T21:50:21.773Z,99996.00
2018-10-01T21:52:52.069Z,99996.00
2018-10-01T21:55:22.389Z,99999.00
2018-10-01T21:57:52.714Z,99997.00
2018-10-01T22:00:23.079Z,100000.00
2018-10-01T22:02:53.377Z,99996.00
2018-10-01T22:05:23.707Z,99995.00
2018-10-01T22:07:54.029Z,99998.00
2018-10-01T22:10:24.326Z,99998.00
2018-10-01T22:12:54.631Z,99996.00
2018-10-01T22:15:24.945Z,99993.00
2018-10-01T22:17:55.270Z,99991.00
2018-10-01T22:20:25.558Z,99990.00
2018-10-01T22:22:55.821Z,99990.00
2018-10-01T22:25:26.065Z,99994.00
2018-10-01T22:27:56.326Z,99994.00
2018-10-01T22:30:26.730Z,99997.00
2018-10-01T22:32:56.997Z,100001.00
2018-10-01T22:35:27.290Z,99998.00
2018-10-01T22:37:57.543Z,99998.00
2018-10-01T22:40:27.762Z,100002.00
2018-10-01T22:42:58.090Z,100009.00
2018-10-01T22:45:28.350Z,100006.00
2018-10-01T22:47:58.614Z,100010.00
2018-10-01T22:50:28.893Z,100011.00
2018-10-01T22:52:59.165Z,100010.00
2018-10-01T22:55:29.409Z,100012.00
2018-10-01T22:57:59.694Z,100009.00
2018-10-01T23:00:29.973Z,100017.00
2018-10-01T23:03:00.277Z,100017.00
2018-10-01T23:05:30.523Z,100015.00
2018-10-01T23:08:00.790Z,100020.00
2018-10-01T23:10:31.031Z,100018.00
2018-10-01T23:13:01.299Z,100025.00
2018-10-01T23:15:31.545Z,100021.00
2018-10-01T23:18:01.819Z,100023.00
2018-10-01T23:20:32.095Z,100027.00
2018-10-01T23:23:02.389Z,100025.00
2018-10-01T23:25:32.606Z,100026.00
2018-10-01T23:28:02.868Z,100025.00
2018-10-01T23:30:33.135Z,100028.00
2018-10-01T23:33:03.403Z,100025.00
2018-10-01T23:35:33.666Z,100030.00
2018-10-01T23:38:03.965Z,100024.00
2018-10-01T23:40:34.214Z,100027.00
2018-10-01T23:43:04.508Z,100028.00
2018-10-01T23:45:34.761Z,100035.00
2018-10-01T23:48:05.030Z,100037.00
2018-10-01T23:50:35.296Z,100034.00
2018-10-01T23:53:05.869Z,100032.00
2018-10-01T23:55:36.170Z,100028.00
2018-10-01T23:58:06.433Z,100023.00
